Terminal Aerodrome Forecast
Issued by NWS

Current Version | Previous Version | Graphics & Text | Print | Product List | Glossary On
Versions: 1 2 3 4 5 6 7 8 9 10 11 12 13 14 15 16 17 18 19 20 21 22 23 24 25 26 27 28 29 30 31 32 33 34 35 36 37 38 39 40 41 42 43 44 45 46 47 48
610
FTUS41 KRNK 291757 AAA
TAFLWB
TAF AMD
KLWB 291757Z 2918/3018 13007G17KT P6SM BKN028 OVC035
     FM291900 12007G17KT 5SM -SHRA OVC035
      TEMPO 2919/2921 3SM TSRA OVC025CB
     FM300300 09004KT 4SM -SHRA OVC007 WS020/11035KT
     FM301500 10006KT P6SM SCT007 OVC025=

USA.gov is the U.S. government's official web portal to all federal, state and local government web resources and services.